Time;durP1;ratioP1;P1;durP2;ratioP2;P2;SDS_P1;SDS_P2;PMS_P1;PMS_P2;Temp;Humidity;BMP_temperature;BMP_pressure;BME280_temperature;BME280_humidity;BME280_pressure;Samples;Min_cycle;Max_cycle;Signal;HPM_P1;HPM_P2
2022/06/23 00:02:26;;;;;;;23.20;21.50;;;20.90;92.90;;;;;;5025270;28;21024;-71
2022/06/23 00:04:56;;;;;;;22.90;21.00;;;20.90;92.90;;;;;;5018808;28;20486;-72
2022/06/23 00:07:27;;;;;;;23.23;21.30;;;20.90;92.90;;;;;;5024600;28;20468;-73
2022/06/23 00:09:56;;;;;;;23.60;21.57;;;20.90;92.70;;;;;;5018912;28;20550;-74
2022/06/23 00:12:27;;;;;;;23.33;21.40;;;20.90;92.50;;;;;;5025246;28;20550;-71
2022/06/23 00:15:15;;;;;;;23.27;20.80;;;20.90;92.40;;;;;;5018825;28;20463;-73
2022/06/23 00:17:44;;;;;;;23.13;21.50;;;20.90;92.50;;;;;;5022350;28;20487;-71
2022/06/23 00:20:14;;;;;;;22.97;20.93;;;20.80;92.90;;;;;;5018404;28;20463;-76
2022/06/23 00:22:44;;;;;;;22.27;20.43;;;20.70;93.10;;;;;;5025997;28;20477;-72
2022/06/23 00:25:26;;;;;;;23.40;21.60;;;20.60;93.40;;;;;;5022230;28;20594;-71
2022/06/23 00:27:53;;;;;;;22.30;20.60;;;20.60;93.20;;;;;;5022834;28;20486;-76
2022/06/23 00:30:25;;;;;;;22.70;20.90;;;20.50;93.00;;;;;;5018939;28;20458;-73
2022/06/23 00:32:53;;;;;;;23.67;21.60;;;20.50;93.10;;;;;;5022007;28;20594;-71
2022/06/23 00:35:21;;;;;;;23.50;21.70;;;20.60;92.90;;;;;;5024173;28;20469;-73
2022/06/23 00:37:49;;;;;;;23.00;20.93;;;20.60;93.00;;;;;;5022046;28;20570;-76
2022/06/23 00:40:21;;;;;;;22.30;20.60;;;20.50;93.60;;;;;;5024031;28;20482;-72
2022/06/23 00:42:52;;;;;;;22.23;20.57;;;20.60;93.50;;;;;;5019264;28;20458;-73
2022/06/23 00:45:28;;;;;;;22.50;20.80;;;20.60;93.30;;;;;;5024171;28;20566;-71
2022/06/23 00:48:00;;;;;;;23.27;20.63;;;20.60;93.30;;;;;;5023049;28;21039;-75
2022/06/23 00:50:33;;;;;;;22.23;20.53;;;20.60;93.30;;;;;;5020397;28;20960;-71
2022/06/23 00:53:03;;;;;;;22.30;20.63;;;20.50;93.50;;;;;;5024346;28;20493;-71
2022/06/23 00:55:44;;;;;;;22.57;20.87;;;20.50;93.40;;;;;;5019252;28;20974;-71
2022/06/23 00:58:24;;;;;;;22.60;20.77;;;20.50;93.30;;;;;;5019612;28;20482;-73
2022/06/23 01:00:57;;;;;;;22.20;20.20;;;20.40;93.60;;;;;;5018977;28;20840;-71
2022/06/23 01:03:30;;;;;;;21.80;19.93;;;20.40;93.50;;;;;;5020049;28;20456;-72
2022/06/23 01:06:06;;;;;;;22.70;20.90;;;20.30;93.60;;;;;;5019549;28;20478;-72
2022/06/23 01:08:43;;;;;;;22.07;20.47;;;20.20;93.50;;;;;;5020730;28;20994;-71
2022/06/23 01:11:14;;;;;;;22.87;20.90;;;20.10;93.90;;;;;;5020190;28;20457;-71
2022/06/23 01:13:45;;;;;;;22.10;20.30;;;20.10;94.10;;;;;;5019303;28;20458;-72
2022/06/23 01:16:18;;;;;;;21.90;20.20;;;20.10;94.10;;;;;;5026746;28;20993;-72
2022/06/23 01:18:51;;;;;;;21.67;19.90;;;20.00;94.20;;;;;;5027331;28;20544;-71
2022/06/23 01:21:22;;;;;;;21.80;19.97;;;20.00;94.30;;;;;;5034863;28;20544;-73
2022/06/23 01:24:22;;;;;;;22.57;20.70;;;20.00;94.40;;;;;;5024249;28;20837;-72
2022/06/23 01:27:03;;;;;;;22.17;20.30;;;20.00;94.40;;;;;;5027679;28;20512;-71
2022/06/23 01:29:34;;;;;;;22.67;20.57;;;20.00;94.20;;;;;;5023903;28;20545;-71
2022/06/23 01:32:14;;;;;;;22.90;20.67;;;19.90;94.00;;;;;;5025209;28;20536;-74
2022/06/23 01:34:49;;;;;;;23.27;20.80;;;19.90;94.10;;;;;;5025711;28;20456;-71
2022/06/23 01:37:23;;;;;;;21.50;19.60;;;19.90;94.40;;;;;;5024647;28;20556;-75
2022/06/23 01:39:57;;;;;;;22.13;20.40;;;19.90;94.30;;;;;;5024555;28;20556;-71
2022/06/23 01:42:34;;;;;;;21.23;19.73;;;19.80;94.30;;;;;;5028489;28;20519;-71
2022/06/23 01:45:07;;;;;;;22.83;20.70;;;19.70;94.50;;;;;;5028647;28;20455;-72
2022/06/23 01:47:38;;;;;;;21.57;19.90;;;19.70;94.60;;;;;;5025025;28;20472;-72
2022/06/23 01:50:34;;;;;;;21.33;19.63;;;19.70;94.50;;;;;;5023839;28;20476;-74
2022/06/23 01:53:24;;;;;;;22.43;20.63;;;19.70;94.40;;;;;;5027952;28;20515;-72
2022/06/23 01:56:13;;;;;;;23.43;21.33;;;19.60;94.20;;;;;;5024702;28;20463;-71
2022/06/23 01:58:54;;;;;;;23.50;20.60;;;19.60;94.20;;;;;;5024773;28;20462;-71
2022/06/23 02:01:32;;;;;;;23.47;21.40;;;19.50;94.50;;;;;;5020031;28;20473;-72
2022/06/23 02:04:08;;;;;;;21.30;19.50;;;19.50;94.50;;;;;;5022231;28;20452;-71
2022/06/23 02:06:43;;;;;;;21.60;19.90;;;19.50;94.50;;;;;;5025206;28;20474;-71
2022/06/23 02:09:16;;;;;;;22.10;20.30;;;19.50;94.50;;;;;;5026093;28;20462;-72
2022/06/23 02:11:46;;;;;;;22.07;20.13;;;19.50;94.40;;;;;;5026983;28;20552;-74
2022/06/23 02:14:22;;;;;;;21.60;20.37;;;19.40;94.30;;;;;;5025534;28;20472;-73
2022/06/23 02:16:56;;;;;;;22.67;20.70;;;19.30;94.60;;;;;;5025257;28;21005;-72
2022/06/23 02:19:34;;;;;;;22.00;20.37;;;19.30;94.70;;;;;;5022628;28;20561;-74
2022/06/23 02:22:11;;;;;;;22.23;20.40;;;19.30;94.60;;;;;;5025421;28;20465;-72
2022/06/23 02:24:45;;;;;;;21.70;20.07;;;19.30;95.00;;;;;;5021034;28;20570;-72
2022/06/23 02:27:19;;;;;;;21.17;19.63;;;19.20;95.00;;;;;;5028262;28;20591;-72
2022/06/23 02:29:53;;;;;;;22.23;20.27;;;19.20;95.10;;;;;;5021612;28;21093;-69
2022/06/23 02:32:27;;;;;;;21.63;19.80;;;19.20;94.90;;;;;;5024230;28;20998;-68
2022/06/23 02:35:01;;;;;;;21.90;20.20;;;19.20;94.70;;;;;;5020007;28;20452;-69
2022/06/23 02:37:56;;;;;;;22.20;20.50;;;19.20;94.80;;;;;;5024485;28;20567;-69
2022/06/23 02:40:30;;;;;;;21.43;19.90;;;19.20;94.70;;;;;;5024689;28;20555;-69
2022/06/23 02:43:01;;;;;;;22.20;20.70;;;19.20;94.70;;;;;;5027967;28;20457;-69
2022/06/23 02:45:55;;;;;;;21.97;20.17;;;19.20;94.90;;;;;;5022835;28;20465;-69
2022/06/23 02:48:40;;;;;;;23.30;21.27;;;19.20;94.80;;;;;;5015647;28;20479;-69
2022/06/23 02:51:29;;;;;;;22.23;20.40;;;19.10;94.70;;;;;;5024391;28;20985;-69
2022/06/23 02:54:24;;;;;;;23.57;21.33;;;19.10;95.00;;;;;;5020736;28;20557;-69
2022/06/23 02:57:29;;;;;;;23.30;21.13;;;19.20;94.80;;;;;;5025465;28;20472;-73
2022/06/23 03:00:02;;;;;;;22.60;20.67;;;19.20;94.60;;;;;;5023472;28;20524;-71
2022/06/23 03:02:36;;;;;;;22.10;20.30;;;19.10;94.60;;;;;;5021901;28;20457;-72
2022/06/23 03:05:08;;;;;;;22.70;20.53;;;19.10;94.80;;;;;;5022511;28;20547;-72
2022/06/23 03:07:41;;;;;;;21.73;20.20;;;19.10;94.60;;;;;;5025284;28;20505;-71
2022/06/23 03:10:14;;;;;;;22.17;20.37;;;19.10;94.50;;;;;;5019410;28;20543;-72
2022/06/23 03:12:47;;;;;;;21.50;20.03;;;19.20;94.30;;;;;;5021346;28;20464;-71
2022/06/23 03:15:21;;;;;;;22.87;20.97;;;19.20;94.40;;;;;;5023374;28;20548;-71
2022/06/23 03:17:56;;;;;;;23.87;22.10;;;19.30;94.00;;;;;;5023103;28;20998;-72
2022/06/23 03:20:37;;;;;;;21.90;20.10;;;19.30;93.80;;;;;;5029488;28;20544;-76
2022/06/23 03:23:10;;;;;;;22.73;21.33;;;19.30;93.80;;;;;;5022113;28;21189;-71
2022/06/23 03:25:43;;;;;;;22.70;21.23;;;19.20;94.00;;;;;;5022768;28;20483;-74
2022/06/23 03:28:15;;;;;;;23.77;21.40;;;19.20;93.90;;;;;;5023960;28;20612;-70
2022/06/23 03:30:48;;;;;;;23.37;21.47;;;19.20;94.10;;;;;;5022024;28;20452;-71
2022/06/23 03:33:22;;;;;;;22.33;20.13;;;19.20;94.00;;;;;;5028250;28;20571;-70
2022/06/23 03:35:55;;;;;;;22.60;20.70;;;19.30;94.00;;;;;;5027399;28;20938;-70
2022/06/23 03:41:36;;;;;;;26.03;24.00;;;19.40;93.90;;;;;;5037830;28;20568;-75
2022/06/23 03:41:36;;;;;;;24.17;22.40;;;19.40;93.50;;;;;;5030093;28;20450;-70
2022/06/23 03:44:10;;;;;;;21.70;20.10;;;19.50;93.20;;;;;;5028193;28;20457;-70
2022/06/23 03:46:43;;;;;;;24.07;22.10;;;19.60;93.30;;;;;;5028699;28;20490;-70
2022/06/23 03:49:17;;;;;;;24.60;20.50;;;19.80;92.60;;;;;;5021504;28;20463;-70
2022/06/23 03:51:51;;;;;;;24.43;22.53;;;19.90;92.30;;;;;;5030074;28;20471;-71
2022/06/23 03:54:22;;;;;;;25.30;22.90;;;20.10;91.50;;;;;;5030133;28;20454;-70
2022/06/23 03:56:53;;;;;;;23.87;21.97;;;20.50;89.90;;;;;;5028511;28;20495;-72
2022/06/23 03:59:28;;;;;;;26.33;24.53;;;20.80;88.60;;;;;;5032785;28;20455;-70
2022/06/23 04:02:01;;;;;;;25.93;23.80;;;21.00;87.40;;;;;;5024471;28;20469;-71
2022/06/23 04:04:45;;;;;;;28.87;26.70;;;21.00;87.10;;;;;;5027695;28;21025;-68
2022/06/23 04:07:36;;;;;;;32.13;30.00;;;21.00;87.00;;;;;;5031188;28;20958;-68
2022/06/23 04:10:05;;;;;;;25.43;23.33;;;20.90;87.10;;;;;;5024919;28;20547;-68
2022/06/23 04:12:34;;;;;;;27.33;25.37;;;20.90;87.30;;;;;;5037658;28;20550;-68
2022/06/23 04:15:05;;;;;;;24.30;22.50;;;20.90;87.50;;;;;;5031904;28;20780;-69
2022/06/23 04:17:39;;;;;;;26.03;24.13;;;20.80;87.40;;;;;;5028296;28;20472;-68
2022/06/23 04:20:15;;;;;;;29.30;26.67;;;20.90;87.30;;;;;;5026907;28;20514;-69
2022/06/23 04:22:48;;;;;;;30.30;27.40;;;20.80;87.10;;;;;;5028829;28;20470;-71
2022/06/23 04:25:20;;;;;;;28.43;26.23;;;20.80;87.20;;;;;;5025207;28;20465;-71
2022/06/23 04:27:51;;;;;;;25.37;23.37;;;20.80;87.40;;;;;;5027675;28;20569;-72
2022/06/23 04:30:24;;;;;;;26.80;24.60;;;20.80;87.50;;;;;;5025348;28;20454;-72
2022/06/23 04:32:51;;;;;;;26.73;25.03;;;20.80;87.50;;;;;;5028484;28;20584;-75
2022/06/23 04:35:23;;;;;;;26.60;24.20;;;20.80;87.30;;;;;;5023433;28;20866;-72
2022/06/23 04:37:58;;;;;;;28.93;26.23;;;20.80;87.40;;;;;;5029201;28;20555;-74
2022/06/23 04:40:28;;;;;;;26.13;24.00;;;20.80;87.40;;;;;;5025231;28;20540;-72
2022/06/23 04:43:01;;;;;;;27.33;25.50;;;20.70;87.80;;;;;;5023754;28;20853;-72
2022/06/23 04:45:38;;;;;;;28.50;26.13;;;20.70;87.80;;;;;;5020891;28;20460;-72
2022/06/23 04:48:12;;;;;;;29.93;27.57;;;20.70;87.90;;;;;;5024680;28;20508;-72
2022/06/23 04:50:44;;;;;;;27.80;25.70;;;20.60;88.20;;;;;;5021338;28;20464;-72
2022/06/23 04:53:23;;;;;;;29.10;27.00;;;20.60;88.40;;;;;;5025001;28;20515;-72
2022/06/23 04:56:04;;;;;;;25.73;23.93;;;20.50;88.60;;;;;;5026313;28;20501;-73
2022/06/23 04:58:32;;;;;;;26.33;24.17;;;20.60;88.70;;;;;;5020180;28;20551;-72
2022/06/23 05:00:59;;;;;;;26.67;24.40;;;20.60;88.60;;;;;;5021525;28;20458;-72
2022/06/23 05:03:33;;;;;;;27.30;25.10;;;20.60;88.60;;;;;;5024123;28;20514;-71
2022/06/23 05:06:11;;;;;;;25.97;23.93;;;20.70;88.30;;;;;;5021838;28;20476;-70
2022/06/23 05:08:42;;;;;;;25.80;23.90;;;20.90;87.80;;;;;;5023588;28;20466;-70
2022/06/23 05:11:15;;;;;;;25.20;23.60;;;21.00;87.50;;;;;;5024620;28;20456;-73
2022/06/23 05:13:48;;;;;;;27.40;25.20;;;21.10;87.20;;;;;;5012685;28;20524;-70
2022/06/23 05:16:24;;;;;;;25.97;23.90;;;21.10;86.80;;;;;;5021222;28;20538;-69
2022/06/23 05:18:53;;;;;;;28.23;25.93;;;21.30;86.70;;;;;;5019303;28;20455;-68
2022/06/23 05:21:24;;;;;;;28.43;26.10;;;21.40;86.30;;;;;;5028253;28;20543;-68
2022/06/23 05:23:59;;;;;;;27.73;25.67;;;21.40;86.30;;;;;;5024154;28;20466;-69
2022/06/23 05:26:29;;;;;;;27.17;25.00;;;21.50;86.40;;;;;;5015446;28;20563;-68
2022/06/23 05:29:01;;;;;;;26.57;24.57;;;21.60;86.00;;;;;;5019414;28;20548;-71
2022/06/23 05:31:32;;;;;;;29.30;27.20;;;21.80;85.50;;;;;;5025897;28;20546;-75
2022/06/23 05:34:05;;;;;;;25.93;24.03;;;21.90;85.30;;;;;;5016605;28;20487;-74
2022/06/23 05:36:38;;;;;;;28.83;26.43;;;22.00;84.80;;;;;;5017876;28;20909;-72
2022/06/23 05:39:15;;;;;;;26.47;24.50;;;22.10;84.50;;;;;;5024411;28;20466;-75
2022/06/23 05:41:46;;;;;;;30.50;28.40;;;22.20;84.50;;;;;;5016707;28;20471;-69
2022/06/23 05:44:18;;;;;;;28.13;25.70;;;22.30;84.30;;;;;;5030053;28;20466;-69
2022/06/23 05:46:48;;;;;;;27.27;25.23;;;22.40;84.00;;;;;;5030310;28;20905;-69
2022/06/23 05:49:20;;;;;;;27.27;24.83;;;22.50;83.80;;;;;;5023729;28;20467;-70
2022/06/23 05:51:53;;;;;;;27.80;25.90;;;22.60;83.30;;;;;;5035341;28;20481;-70
2022/06/23 05:54:25;;;;;;;27.47;25.43;;;22.70;83.20;;;;;;5033757;28;20462;-69
2022/06/23 05:56:58;;;;;;;28.07;25.27;;;22.80;83.20;;;;;;5035669;28;20552;-69
2022/06/23 05:59:30;;;;;;;31.10;28.80;;;22.90;83.10;;;;;;5028476;28;20544;-69
2022/06/23 06:02:09;;;;;;;30.77;28.67;;;23.00;82.80;;;;;;5020068;28;20458;-69
2022/06/23 06:04:44;;;;;;;30.30;28.00;;;23.10;82.40;;;;;;5023722;28;20463;-69
2022/06/23 06:07:17;;;;;;;30.97;28.60;;;23.10;82.30;;;;;;5042082;28;20484;-69
2022/06/23 06:09:46;;;;;;;34.23;32.03;;;23.20;81.80;;;;;;5033533;28;20548;-69
2022/06/23 06:12:16;;;;;;;32.07;28.67;;;23.30;81.00;;;;;;5041200;28;20573;-70
2022/06/23 06:14:47;;;;;;;31.57;28.63;;;23.30;81.20;;;;;;5026585;28;20474;-70
2022/06/23 06:17:22;;;;;;;30.90;28.20;;;23.40;80.70;;;;;;5021283;28;20477;-72
2022/06/23 06:19:51;;;;;;;34.00;31.57;;;23.50;80.60;;;;;;5025832;28;21262;-71
2022/06/23 06:22:36;;;;;;;30.60;27.80;;;23.70;80.30;;;;;;5035442;28;20451;-71
2022/06/23 06:25:07;;;;;;;32.30;29.80;;;23.70;79.70;;;;;;5025215;28;20543;-71
2022/06/23 06:27:35;;;;;;;32.27;29.40;;;23.70;79.80;;;;;;5047672;28;20574;-70
2022/06/23 06:30:02;;;;;;;33.50;30.77;;;23.80;79.50;;;;;;5025165;28;20464;-71
2022/06/23 06:32:33;;;;;;;29.90;27.67;;;23.90;78.60;;;;;;5027266;28;20460;-71
2022/06/23 06:35:13;;;;;;;31.50;29.00;;;24.00;78.40;;;;;;5026828;28;20505;-69
2022/06/23 06:37:44;;;;;;;30.73;28.30;;;24.10;78.40;;;;;;5051554;28;20503;-69
2022/06/23 06:40:13;;;;;;;31.70;29.07;;;24.20;77.90;;;;;;5031111;28;20542;-69
2022/06/23 06:42:44;;;;;;;30.47;27.73;;;24.30;77.50;;;;;;5042826;28;21247;-71
2022/06/23 06:45:15;;;;;;;35.37;32.50;;;24.30;77.10;;;;;;5025110;28;20462;-69
2022/06/23 06:47:44;;;;;;;32.50;29.90;;;24.40;76.80;;;;;;5043856;28;20824;-69
2022/06/23 06:50:25;;;;;;;34.37;31.90;;;24.40;76.80;;;;;;5030552;28;20461;-69
2022/06/23 06:52:53;;;;;;;31.03;27.53;;;24.50;76.80;;;;;;5021993;28;20457;-71
2022/06/23 06:55:25;;;;;;;30.87;28.37;;;24.50;76.60;;;;;;5033767;28;20563;-71
2022/06/23 06:57:58;;;;;;;31.83;29.43;;;24.60;76.50;;;;;;5040142;28;20499;-67
2022/06/23 07:00:29;;;;;;;30.43;28.27;;;24.80;76.50;;;;;;5028031;28;20543;-70
2022/06/23 07:02:59;;;;;;;31.47;28.90;;;24.90;75.80;;;;;;5035242;28;20460;-69
2022/06/23 07:05:33;;;;;;;33.37;30.53;;;25.00;75.20;;;;;;5027823;28;20459;-69
2022/06/23 07:08:07;;;;;;;32.07;29.57;;;25.10;74.60;;;;;;5033517;28;20918;-69
2022/06/23 07:10:43;;;;;;;31.47;29.27;;;25.30;73.90;;;;;;5020908;28;20449;-69
2022/06/23 07:13:16;;;;;;;33.43;30.67;;;25.40;73.00;;;;;;5024489;28;20466;-70
2022/06/23 07:15:50;;;;;;;33.23;31.00;;;25.50;72.50;;;;;;5029491;28;20524;-69
2022/06/23 07:18:22;;;;;;;33.30;30.70;;;25.60;72.30;;;;;;5032467;28;20930;-69
2022/06/23 07:20:57;;;;;;;32.77;30.30;;;25.70;72.00;;;;;;5030669;28;21135;-70
2022/06/23 07:23:31;;;;;;;33.07;30.37;;;25.80;71.60;;;;;;5039699;28;20458;-69
2022/06/23 07:26:15;;;;;;;32.83;30.53;;;25.90;71.30;;;;;;5037889;28;20452;-69
2022/06/23 07:28:47;;;;;;;30.60;28.27;;;26.10;71.00;;;;;;5023118;28;20584;-69
2022/06/23 07:31:17;;;;;;;32.10;29.67;;;26.20;70.80;;;;;;5028965;28;20475;-69
2022/06/23 07:33:49;;;;;;;32.60;30.00;;;26.20;70.20;;;;;;5028974;28;20553;-69
2022/06/23 07:36:23;;;;;;;31.97;29.10;;;26.40;68.80;;;;;;5041674;28;20560;-70
2022/06/23 07:38:54;;;;;;;30.50;28.30;;;26.40;68.40;;;;;;5030638;28;21056;-70
2022/06/23 07:41:28;;;;;;;33.50;30.90;;;26.40;68.40;;;;;;5034023;28;21020;-69
2022/06/23 07:44:00;;;;;;;32.43;29.73;;;26.30;68.20;;;;;;5042385;28;20461;-70
2022/06/23 07:46:27;;;;;;;33.13;30.70;;;26.30;68.90;;;;;;5025976;28;20567;-69
2022/06/23 07:48:54;;;;;;;34.07;31.30;;;26.30;69.10;;;;;;5037969;28;21297;-70
2022/06/23 07:51:21;;;;;;;33.10;30.63;;;26.40;68.30;;;;;;5031435;28;21010;-69
2022/06/23 07:53:52;;;;;;;34.83;32.27;;;26.50;68.00;;;;;;5032423;28;20459;-70
2022/06/23 07:56:22;;;;;;;32.47;30.10;;;26.50;68.50;;;;;;5029619;28;20455;-69
2022/06/23 07:58:53;;;;;;;33.50;31.00;;;26.50;68.50;;;;;;5040179;28;20454;-69
2022/06/23 08:01:27;;;;;;;33.33;30.87;;;26.60;67.90;;;;;;5031331;28;21003;-69
2022/06/23 08:04:03;;;;;;;34.73;31.80;;;26.60;67.90;;;;;;5038449;28;20550;-70
2022/06/23 08:06:31;;;;;;;35.33;32.67;;;26.60;67.80;;;;;;5040845;28;20868;-69
2022/06/23 08:09:02;;;;;;;36.60;32.73;;;26.60;67.70;;;;;;5036662;28;20841;-69
2022/06/23 08:14:23;;;;;;;34.50;32.03;;;26.80;67.50;;;;;;5018250;28;20509;-67
2022/06/23 08:16:49;;;;;;;34.00;31.30;;;26.80;67.20;;;;;;5034096;28;20586;-67
2022/06/23 08:19:29;;;;;;;32.77;30.07;;;26.70;67.00;;;;;;5035546;28;20977;-67
2022/06/23 08:22:03;;;;;;;33.80;31.30;;;26.70;67.40;;;;;;5041840;28;20188;-67
2022/06/23 08:24:32;;;;;;;36.50;33.83;;;26.80;67.30;;;;;;5036096;28;20574;-67
2022/06/23 08:27:04;;;;;;;35.10;32.30;;;26.90;67.00;;;;;;5046439;28;20495;-67
2022/06/23 08:29:37;;;;;;;33.60;31.27;;;27.00;66.70;;;;;;5030986;28;20570;-67
2022/06/23 08:32:04;;;;;;;34.70;32.00;;;27.10;66.00;;;;;;5044583;28;20463;-67
2022/06/23 08:34:33;;;;;;;34.87;32.10;;;27.20;64.80;;;;;;5034505;28;20535;-67
2022/06/23 08:37:03;;;;;;;32.33;29.97;;;27.10;65.00;;;;;;5030822;28;20481;-67
2022/06/23 08:39:38;;;;;;;34.80;32.43;;;27.00;65.50;;;;;;5032504;28;20954;-67
2022/06/23 08:42:16;;;;;;;35.13;32.60;;;27.10;65.30;;;;;;5034762;28;21004;-67
2022/06/23 08:44:49;;;;;;;36.10;33.20;;;27.00;65.30;;;;;;5031041;28;22348;-67
2022/06/23 08:47:22;;;;;;;35.30;32.93;;;27.10;65.40;;;;;;5046025;28;20975;-67
2022/06/23 08:49:54;;;;;;;31.73;29.20;;;27.10;65.30;;;;;;5023791;28;20521;-69
2022/06/23 08:52:30;;;;;;;34.10;31.40;;;27.20;65.10;;;;;;5029796;28;20462;-70
2022/06/23 08:55:02;;;;;;;36.60;34.27;;;27.30;65.00;;;;;;5026978;28;20555;-67
2022/06/23 08:57:38;;;;;;;34.07;31.37;;;27.40;64.80;;;;;;5033817;28;20483;-67
2022/06/23 09:00:11;;;;;;;36.00;33.63;;;27.30;65.20;;;;;;5030478;28;20459;-69
2022/06/23 09:02:43;;;;;;;37.53;34.33;;;27.30;65.30;;;;;;5049489;28;20459;-70
2022/06/23 09:05:18;;;;;;;35.10;32.30;;;27.30;65.50;;;;;;5030023;28;20455;-70
2022/06/23 09:07:54;;;;;;;33.50;31.00;;;27.10;65.90;;;;;;5030218;28;20575;-70
2022/06/23 09:10:31;;;;;;;35.20;32.30;;;27.10;65.80;;;;;;5029685;28;20813;-70
2022/06/23 09:13:08;;;;;;;32.43;30.00;;;27.00;66.10;;;;;;5031767;28;20464;-70
2022/06/23 09:15:51;;;;;;;35.87;33.00;;;27.10;65.30;;;;;;5030803;28;20814;-69
2022/06/23 09:18:46;;;;;;;38.13;34.70;;;27.00;64.90;;;;;;5046178;28;20502;-70
2022/06/23 09:21:30;;;;;;;36.87;34.17;;;26.90;65.50;;;;;;5032307;28;20465;-70
2022/06/23 09:24:29;;;;;;;33.03;30.40;;;26.90;65.80;;;;;;5013506;28;20960;-72
2022/06/23 09:27:00;;;;;;;34.57;31.77;;;27.20;65.50;;;;;;5020755;28;20571;-70
2022/06/23 09:29:46;;;;;;;33.80;30.90;;;27.50;64.60;;;;;;5028683;28;20488;-69
2022/06/23 09:32:20;;;;;;;33.10;30.10;;;27.50;64.10;;;;;;5021689;28;20465;-69
2022/06/23 09:35:01;;;;;;;35.10;32.30;;;27.50;63.60;;;;;;5022054;28;20448;-69
2022/06/23 09:37:53;;;;;;;34.70;32.20;;;27.50;63.60;;;;;;5022303;28;21033;-69
2022/06/23 09:40:38;;;;;;;35.10;32.20;;;27.60;63.90;;;;;;5033531;28;20485;-70
2022/06/23 09:43:35;;;;;;;33.83;31.30;;;27.70;63.10;;;;;;5050395;28;20527;-69
2022/06/23 09:46:18;;;;;;;35.67;33.07;;;27.50;63.00;;;;;;5023874;28;20543;-69
2022/06/23 09:49:14;;;;;;;36.67;33.93;;;27.60;62.40;;;;;;5042568;28;20491;-67
2022/06/23 09:52:15;;;;;;;35.70;33.20;;;27.70;62.00;;;;;;5031434;28;20514;-66
2022/06/23 09:55:04;;;;;;;35.33;32.37;;;27.40;62.60;;;;;;5024633;28;20467;-67
2022/06/23 09:58:04;;;;;;;31.63;29.10;;;27.50;62.40;;;;;;5024208;28;20474;-68
2022/06/23 10:00:42;;;;;;;32.17;30.03;;;27.60;61.00;;;;;;5031254;28;20539;-68
2022/06/23 10:03:30;;;;;;;36.23;33.77;;;27.50;60.40;;;;;;5036497;28;20452;-67
2022/06/23 10:06:29;;;;;;;31.70;29.30;;;27.60;60.70;;;;;;5021333;28;20454;-70
2022/06/23 10:09:01;;;;;;;33.10;30.80;;;27.80;61.90;;;;;;5019167;28;20486;-68
2022/06/23 10:12:03;;;;;;;34.97;32.20;;;28.00;60.90;;;;;;5024959;28;20465;-69
2022/06/23 10:14:43;;;;;;;32.50;29.97;;;27.90;60.20;;;;;;5019988;28;20463;-69
2022/06/23 10:17:38;;;;;;;32.23;29.90;;;27.80;60.40;;;;;;5026407;28;20507;-69
2022/06/23 10:20:43;;;;;;;34.77;32.10;;;27.90;59.60;;;;;;5032049;28;20499;-69
2022/06/23 10:23:33;;;;;;;37.80;34.90;;;27.90;59.80;;;;;;5029477;28;21446;-67
2022/06/23 10:26:33;;;;;;;35.87;32.43;;;27.90;59.60;;;;;;5022490;28;20465;-70
2022/06/23 10:29:38;;;;;;;36.20;33.13;;;28.00;59.60;;;;;;5019384;28;20483;-69
2022/06/23 10:32:41;;;;;;;36.07;32.83;;;28.10;60.10;;;;;;5027619;28;20563;-69
2022/06/23 10:35:30;;;;;;;37.80;34.90;;;28.30;59.70;;;;;;4995898;28;20461;-69
2022/06/23 10:38:33;;;;;;;37.80;35.00;;;28.50;59.20;;;;;;5041843;28;20550;-68
2022/06/23 10:41:50;;;;;;;36.60;34.10;;;28.40;59.50;;;;;;5019837;28;20448;-68
2022/06/23 10:44:49;;;;;;;36.97;34.13;;;28.50;59.60;;;;;;4987767;28;20454;-72
2022/06/23 10:47:33;;;;;;;36.90;34.03;;;28.60;59.20;;;;;;4995371;28;20568;-73
2022/06/23 10:50:25;;;;;;;34.57;32.37;;;28.80;59.50;;;;;;5015309;28;20576;-74
2022/06/23 10:53:26;;;;;;;35.67;33.07;;;29.00;58.70;;;;;;5030787;28;20452;-75
2022/06/23 10:56:04;;;;;;;35.30;32.53;;;29.10;58.50;;;;;;4997393;28;20474;-72
2022/06/23 10:59:02;;;;;;;34.87;32.37;;;29.10;58.20;;;;;;5028271;28;21091;-71
2022/06/23 11:01:51;;;;;;;34.37;31.87;;;29.20;58.10;;;;;;5022640;28;20547;-71
2022/06/23 11:04:44;;;;;;;33.30;31.10;;;29.30;56.00;;;;;;5031357;28;20487;-70
2022/06/23 11:07:23;;;;;;;33.20;30.57;;;29.40;54.60;;;;;;5034650;28;20498;-69
2022/06/23 11:10:05;;;;;;;35.00;32.30;;;29.40;53.80;;;;;;5025652;28;20484;-70
2022/06/23 11:12:45;;;;;;;36.63;33.73;;;29.40;52.80;;;;;;5032098;28;20455;-70
2022/06/23 11:15:22;;;;;;;34.53;32.00;;;29.40;52.10;;;;;;5027624;28;20460;-71
2022/06/23 11:18:03;;;;;;;37.00;34.20;;;29.50;52.00;;;;;;5034764;28;20482;-71
2022/06/23 11:20:41;;;;;;;31.70;29.00;;;29.60;52.80;;;;;;5026234;28;21268;-70
2022/06/23 11:23:16;;;;;;;34.77;32.17;;;29.70;52.40;;;;;;5032273;28;20461;-71
2022/06/23 11:25:56;;;;;;;32.53;29.70;;;29.90;51.70;;;;;;5024883;28;20551;-72
2022/06/23 11:28:36;;;;;;;32.30;29.60;;;30.00;51.30;;;;;;5026964;28;20895;-71
2022/06/23 11:31:17;;;;;;;32.57;30.17;;;30.00;51.40;;;;;;5024063;28;20474;-71
2022/06/23 11:33:59;;;;;;;32.53;30.20;;;29.90;51.40;;;;;;5030967;28;20470;-71
2022/06/23 11:36:48;;;;;;;35.97;33.27;;;29.90;52.10;;;;;;5027856;28;20854;-70
2022/06/23 11:39:43;;;;;;;36.90;34.20;;;30.10;52.40;;;;;;5010807;28;20533;-70
2022/06/23 11:42:27;;;;;;;33.50;30.60;;;30.20;52.30;;;;;;5028156;28;20448;-70
2022/06/23 11:45:12;;;;;;;32.77;30.33;;;30.20;52.50;;;;;;5031922;28;20458;-70
2022/06/23 11:47:54;;;;;;;36.00;33.63;;;30.30;52.60;;;;;;5040162;28;20494;-70
2022/06/23 11:50:29;;;;;;;34.77;31.90;;;30.10;51.00;;;;;;5018619;28;20830;-69
2022/06/23 11:53:13;;;;;;;36.40;33.57;;;30.20;52.00;;;;;;5027192;28;20495;-70
2022/06/23 11:55:45;;;;;;;36.20;33.60;;;30.20;52.50;;;;;;5025052;28;20468;-70
2022/06/23 11:58:25;;;;;;;33.67;30.97;;;30.20;51.60;;;;;;5030545;28;20512;-71
2022/06/23 12:01:02;;;;;;;40.07;37.50;;;30.30;51.00;;;;;;5022806;28;20460;-71
2022/06/23 12:03:47;;;;;;;40.83;36.80;;;30.50;51.10;;;;;;5025545;28;22763;-71
2022/06/23 12:06:24;;;;;;;38.50;35.40;;;30.70;50.10;;;;;;5021484;28;21121;-71
2022/06/23 12:09:00;;;;;;;36.13;33.07;;;30.80;50.90;;;;;;5024713;28;20479;-71
2022/06/23 12:11:29;;;;;;;37.00;34.50;;;30.80;49.10;;;;;;5024390;28;21218;-70
2022/06/23 12:13:59;;;;;;;37.30;34.60;;;30.90;50.10;;;;;;5024554;28;20499;-71
2022/06/23 12:16:26;;;;;;;38.90;35.93;;;30.70;50.00;;;;;;5027354;28;20519;-70
2022/06/23 12:18:59;;;;;;;37.70;34.43;;;30.70;51.20;;;;;;5026578;28;21026;-68
2022/06/23 12:21:36;;;;;;;35.17;32.57;;;30.70;51.60;;;;;;5016201;28;20464;-69
2022/06/23 12:24:13;;;;;;;37.63;34.70;;;31.00;51.80;;;;;;5028190;28;20551;-69
2022/06/23 12:26:47;;;;;;;37.90;35.63;;;31.00;51.20;;;;;;5043430;28;20637;-69
2022/06/23 12:29:22;;;;;;;35.83;32.80;;;31.10;50.60;;;;;;5032903;28;21100;-70
2022/06/23 12:31:57;;;;;;;41.30;38.17;;;31.20;50.60;;;;;;5029734;28;20528;-70
2022/06/23 12:34:36;;;;;;;33.47;31.03;;;31.30;51.70;;;;;;5031661;28;20539;-76
2022/06/23 12:37:19;;;;;;;38.00;35.20;;;31.30;51.20;;;;;;5033860;28;20480;-72
2022/06/23 12:39:53;;;;;;;33.20;30.60;;;31.30;52.80;;;;;;5019955;28;20548;-72
2022/06/23 12:42:28;;;;;;;34.00;31.30;;;31.40;51.90;;;;;;5030928;28;20542;-71
2022/06/23 12:45:12;;;;;;;34.40;31.93;;;31.40;50.80;;;;;;5024508;28;21248;-74
2022/06/23 12:47:53;;;;;;;38.33;34.90;;;31.30;50.70;;;;;;5024930;28;20491;-74
2022/06/23 12:50:44;;;;;;;36.90;34.03;;;31.50;50.30;;;;;;5027408;28;20486;-72
2022/06/23 12:53:29;;;;;;;36.57;34.10;;;31.60;50.00;;;;;;5028794;28;20465;-73
2022/06/23 12:56:12;;;;;;;34.23;31.33;;;31.70;49.90;;;;;;5026538;28;20488;-73
2022/06/23 12:58:45;;;;;;;36.70;33.50;;;31.80;50.10;;;;;;5025934;28;20478;-74
2022/06/23 13:01:17;;;;;;;36.23;33.27;;;31.90;48.40;;;;;;5024332;28;20456;-76
2022/06/23 13:04:00;;;;;;;40.30;37.40;;;31.90;51.90;;;;;;5025481;28;20463;-74
2022/06/23 13:06:35;;;;;;;35.40;32.40;;;32.00;48.10;;;;;;5021981;28;20454;-71
2022/06/23 13:09:12;;;;;;;38.10;35.57;;;32.10;48.80;;;;;;5012153;28;20493;-76
2022/06/23 13:11:46;;;;;;;32.20;29.47;;;32.10;48.00;;;;;;5024005;28;20472;-72
2022/06/23 13:14:18;;;;;;;34.93;32.43;;;32.20;48.00;;;;;;5023406;28;20464;-72
2022/06/23 13:16:53;;;;;;;35.40;32.97;;;32.40;46.90;;;;;;5028217;28;20479;-72
2022/06/23 13:19:29;;;;;;;35.90;33.17;;;32.30;47.60;;;;;;5019632;28;20543;-72
2022/06/23 13:22:05;;;;;;;34.60;31.87;;;32.40;44.60;;;;;;5023081;28;21013;-72